Terminal Aerodrome Forecast
Issued by NWS Atlanta, GA

Home | Current Version | Previous Version | Text Only | Print | Product List | Glossary On
Versions: 1 2 3 4 5 6 7 8 9 10 11 12 13 14 15 16
000
FTUS42 KFFC 291140
TAFCSG
TAF
KCSG 291140Z 2912/3012 11005KT P6SM VCSH SCT020 BKN035
     FM291400 15007KT 6SM -SHRA BKN015
     FM292000 15007KT 3SM -SHRA BKN020
      TEMPO 2920/2924 TSRA BKN015CB
     FM300100 13004KT 4SM -RA BR OVC007=

USA.gov is the U.S. government's official web portal to all federal, state and local government web resources and services.